Time;durP1;ratioP1;P1;durP2;ratioP2;P2;SDS_P1;SDS_P2;PMS_P1;PMS_P2;Temp;Humidity;BMP_temperature;BMP_pressure;BME280_temperature;BME280_humidity;BME280_pressure;Samples;Min_cycle;Max_cycle;Signal;HPM_P1;HPM_P2
2022/06/26 08:37:27;;;;;;;;;18.40;18.40;;;;;24.93;65.27;99392.47;5123141;27;13502;-69
2022/06/26 08:39:56;;;;;;;;;18.60;15.80;;;;;25.26;65.23;99389.53;5104914;27;8880;-73
2022/06/26 08:42:27;;;;;;;;;16.20;15.20;;;;;25.70;65.05;99393.81;5124224;27;8871;-71
2022/06/26 08:44:58;;;;;;;;;18.20;18.20;;;;;26.12;62.53;99391.09;5121254;27;8857;-69
2022/06/26 08:47:33;;;;;;;;;17.20;16.40;;;;;26.28;58.91;99393.59;5123393;27;8865;-69
2022/06/26 08:50:02;;;;;;;;;19.20;19.20;;;;;26.15;59.44;99402.41;5124803;27;8841;-70
2022/06/26 08:52:33;;;;;;;;;18.60;16.60;;;;;26.44;58.54;99402.25;5087725;27;8960;-80
2022/06/26 08:55:04;;;;;;;;;18.60;16.20;;;;;26.75;56.85;99405.50;5124690;27;8859;-72
2022/06/26 08:57:34;;;;;;;;;16.00;15.00;;;;;26.75;55.47;99403.69;5125006;27;8837;-72
2022/06/26 09:00:05;;;;;;;;;13.00;13.00;;;;;27.03;56.39;99407.09;5125127;27;9028;-73
2022/06/26 09:02:34;;;;;;;;;17.40;16.20;;;;;27.39;54.57;99398.28;5124692;27;8938;-73
2022/06/26 09:05:03;;;;;;;;;16.60;15.60;;;;;27.71;54.56;99399.53;5127199;27;8901;-72
2022/06/26 09:07:48;;;;;;;;;15.60;14.20;;;;;28.03;53.95;99405.22;5130132;27;8865;-72
2022/06/26 09:10:17;;;;;;;;;16.60;16.60;;;;;28.31;52.65;99403.97;5102982;27;8971;-71
2022/06/26 09:12:52;;;;;;;;;16.40;15.60;;;;;28.28;50.78;99392.63;5070537;27;8857;-72
2022/06/26 09:15:22;;;;;;;;;15.80;15.40;;;;;28.54;50.46;99401.38;5104949;28;8859;-71
2022/06/26 09:18:02;;;;;;;;;18.00;18.00;;;;;28.49;49.91;99384.78;5119273;28;8851;-73
2022/06/26 09:20:33;;;;;;;;;15.60;13.60;;;;;27.90;50.75;99407.97;5119503;27;8840;-72
2022/06/26 09:23:04;;;;;;;;;5.40;5.40;;;;;27.39;49.60;99414.34;5114250;27;8860;-71
2022/06/26 09:25:38;;;;;;;;;8.00;8.00;;;;;26.79;50.36;99405.19;5123152;27;9628;-70
2022/06/26 09:28:08;;;;;;;;;12.40;12.40;;;;;27.08;51.31;99412.97;5124451;27;8987;-77
2022/06/26 09:30:52;;;;;;;;;12.40;11.80;;;;;27.52;51.98;99408.09;5119992;27;8840;-75
2022/06/26 09:33:23;;;;;;;;;8.60;8.60;;;;;27.51;49.60;99409.06;5121207;27;8863;-76
2022/06/26 09:35:53;;;;;;;;;10.20;9.00;;;;;27.25;49.67;99416.28;5119412;27;8972;-79
2022/06/26 09:38:25;;;;;;;;;10.60;9.40;;;;;26.95;49.39;99404.09;5122741;27;9692;-75
2022/06/26 09:40:56;;;;;;;;;7.00;7.00;;;;;27.36;49.34;99414.56;5122876;27;8852;-72
2022/06/26 09:43:31;;;;;;;;;9.20;9.00;;;;;27.56;47.21;99405.09;5115893;27;8837;-74
2022/06/26 09:46:02;;;;;;;;;6.00;6.00;;;;;27.51;46.77;99401.03;5120917;27;8872;-73
2022/06/26 09:48:32;;;;;;;;;7.40;7.40;;;;;27.07;46.24;99405.06;5109125;28;8856;-73
2022/06/26 09:51:02;;;;;;;;;2.00;2.00;;;;;26.71;43.47;99410.25;5110432;28;9571;-72
2022/06/26 09:53:33;;;;;;;;;6.40;5.20;;;;;26.97;45.29;99405.69;5087523;28;8863;-75
2022/06/26 09:56:02;;;;;;;;;7.40;7.40;;;;;27.25;45.81;99408.25;5104433;28;8977;-74
2022/06/26 09:58:31;;;;;;;;;6.20;5.20;;;;;27.63;47.14;99413.50;5110828;28;8869;-72
2022/06/26 10:06:37;;;;;;;;;7.80;6.20;;;;;27.35;44.36;99418.22;5105855;28;8944;-76
2022/06/26 10:09:09;;;;;;;;;8.20;7.40;;;;;27.29;46.38;99412.44;5110444;28;9595;-73
2022/06/26 10:11:39;;;;;;;;;8.20;6.20;;;;;27.74;46.18;99407.38;5109298;28;8866;-74
2022/06/26 10:14:14;;;;;;;;;7.20;7.20;;;;;27.56;47.05;99406.88;5094107;28;9662;-74
2022/06/26 10:17:13;;;;;;;;;9.20;8.00;;;;;28.08;47.92;99402.19;5090157;28;9108;-74
2022/06/26 10:19:45;;;;;;;;;8.40;8.40;;;;;28.54;46.17;99401.38;5090427;28;8836;-75
2022/06/26 10:22:15;;;;;;;;;7.60;7.60;;;;;28.86;44.55;99392.63;5090055;28;8832;-72
2022/06/26 10:24:56;;;;;;;;;7.40;6.20;;;;;28.83;42.92;99392.88;5091651;28;8859;-74
2022/06/26 10:27:26;;;;;;;;;5.00;5.00;;;;;28.54;42.19;99398.69;5089663;28;9913;-74
2022/06/26 10:30:10;;;;;;;;;4.80;4.20;;;;;28.78;41.57;99396.78;5101776;28;8845;-73
2022/06/26 10:32:39;;;;;;;;;4.80;4.80;;;;;29.09;41.88;99393.47;5109930;28;8907;-73
2022/06/26 10:35:09;;;;;;;;;5.60;5.60;;;;;29.17;39.72;99391.09;5102938;28;9000;-73
2022/06/26 10:37:43;;;;;;;;;4.40;3.60;;;;;28.75;38.32;99386.31;5080678;28;8875;-74
2022/06/26 10:43:01;;;;;;;;;4.00;4.00;;;;;29.22;40.33;99386.19;5089041;28;8991;-77
2022/06/26 10:45:32;;;;;;;;;6.20;5.80;;;;;29.58;40.99;99384.16;5088333;28;8840;-72
2022/06/26 10:48:04;;;;;;;;;4.80;4.60;;;;;29.60;39.70;99381.34;5089586;28;8848;-71
2022/06/26 10:50:36;;;;;;;;;7.20;7.00;;;;;29.81;39.92;99382.31;5089360;28;8953;-73
2022/06/26 10:53:22;;;;;;;;;6.00;6.00;;;;;29.68;38.83;99381.56;5103310;28;8997;-75
2022/06/26 10:55:53;;;;;;;;;4.60;4.40;;;;;30.24;39.46;99375.13;5069993;28;8840;-71
2022/06/26 10:58:25;;;;;;;;;7.80;7.60;;;;;30.49;37.65;99385.53;5108498;28;8946;-73
2022/06/26 11:00:57;;;;;;;;;7.00;7.00;;;;;30.90;36.96;99372.16;5095978;28;8874;-72
2022/06/26 11:03:27;;;;;;;;;9.00;8.00;;;;;30.51;37.80;99372.78;5109840;28;8891;-77
2022/06/26 11:05:59;;;;;;;;;7.20;7.20;;;;;30.38;37.69;99374.84;5110197;28;8865;-78
2022/06/26 11:08:31;;;;;;;;;8.60;8.20;;;;;30.02;38.24;99368.88;5110081;28;8857;-76
2022/06/26 11:11:05;;;;;;;;;8.80;8.80;;;;;30.18;37.97;99365.75;5108948;28;9582;-76
2022/06/26 11:13:35;;;;;;;;;4.80;4.80;;;;;29.98;37.52;99363.88;5076604;28;8860;-76
2022/06/26 11:16:05;;;;;;;;;7.60;5.80;;;;;29.90;37.26;99361.84;5109764;28;9079;-77
2022/06/26 11:18:35;;;;;;;;;5.80;5.80;;;;;29.79;37.15;99360.03;5058138;28;8861;-75
2022/06/26 11:21:05;;;;;;;;;6.80;6.80;;;;;29.69;38.30;99367.16;5095680;28;8853;-77
2022/06/26 11:23:35;;;;;;;;;6.60;6.60;;;;;30.05;38.08;99359.69;5107766;28;8870;-75
2022/06/26 11:26:07;;;;;;;;;6.60;6.60;;;;;29.94;38.79;99363.28;5100419;28;8863;-75
2022/06/26 11:28:38;;;;;;;;;8.60;8.00;;;;;30.08;38.30;99362.97;5096052;28;8910;-75
2022/06/26 11:31:09;;;;;;;;;8.80;8.80;;;;;29.07;40.57;99373.94;5106560;28;8877;-76
2022/06/26 11:33:40;;;;;;;;;8.40;8.40;;;;;28.62;41.55;99380.19;5108199;28;8968;-76
2022/06/26 11:36:11;;;;;;;;;8.40;8.40;;;;;28.37;41.73;99384.75;5106614;28;8871;-75
2022/06/26 11:38:47;;;;;;;;;9.80;8.80;;;;;28.16;42.69;99384.53;5093368;27;8992;-77
2022/06/26 11:41:18;;;;;;;;;9.80;9.40;;;;;27.88;43.89;99390.25;5095737;28;8868;-75
2022/06/26 11:43:49;;;;;;;;;8.60;8.20;;;;;27.66;44.39;99382.97;5085847;28;8956;-77
2022/06/26 11:46:19;;;;;;;;;9.60;9.20;;;;;27.40;45.73;99385.75;5099190;28;9002;-75
2022/06/26 11:48:50;;;;;;;;;10.00;9.20;;;;;27.36;45.89;99378.91;5090411;28;8848;-74
2022/06/26 11:51:21;;;;;;;;;12.00;11.20;;;;;27.49;45.16;99374.34;5103183;28;8891;-71
2022/06/26 11:53:52;;;;;;;;;9.20;9.20;;;;;27.70;45.67;99369.22;5068548;28;8924;-68
2022/06/26 11:56:24;;;;;;;;;11.80;11.20;;;;;27.96;45.87;99377.19;5023898;28;8839;-74
2022/06/26 11:58:55;;;;;;;;;11.20;11.20;;;;;28.16;44.88;99379.19;5064910;28;8861;-70
2022/06/26 12:01:31;;;;;;;;;16.20;14.20;;;;;28.28;45.00;99374.72;5049010;28;8841;-69
2022/06/26 12:04:01;;;;;;;;;9.00;9.00;;;;;28.53;44.67;99373.69;5065698;28;8879;-71
2022/06/26 12:06:35;;;;;;;;;9.40;9.00;;;;;28.84;43.89;99360.53;5069549;28;9596;-69
2022/06/26 12:09:19;;;;;;;;;12.60;10.20;;;;;28.63;44.29;99363.09;5085481;28;8977;-73
2022/06/26 12:11:53;;;;;;;;;10.40;9.20;;;;;28.78;43.63;99369.09;5097111;28;8865;-72
2022/06/26 12:14:23;;;;;;;;;10.00;9.00;;;;;28.69;43.78;99367.97;5083615;28;8887;-72
2022/06/26 12:16:54;;;;;;;;;11.20;11.20;;;;;28.56;43.66;99367.22;5085093;28;8853;-76
2022/06/26 12:19:24;;;;;;;;;11.40;11.00;;;;;28.29;44.42;99368.38;5083369;28;8837;-77
2022/06/26 12:21:56;;;;;;;;;12.00;12.00;;;;;28.29;45.05;99373.72;5047916;28;8853;-77
2022/06/26 12:24:25;;;;;;;;;7.20;7.20;;;;;28.05;45.21;99379.13;5090087;27;8886;-78
2022/06/26 12:26:58;;;;;;;;;10.40;9.60;;;;;28.14;45.42;99380.28;5107661;28;8945;-77
2022/06/26 12:29:26;;;;;;;;;9.20;8.80;;;;;28.21;45.01;99368.13;5103698;27;9021;-78
2022/06/26 12:31:55;;;;;;;;;9.60;9.60;;;;;28.42;44.57;99372.81;5105002;28;8956;-78
2022/06/26 12:34:24;;;;;;;;;6.60;6.60;;;;;28.32;45.05;99362.78;5088652;27;8867;-77
2022/06/26 12:36:53;;;;;;;;;8.40;8.40;;;;;28.47;44.70;99365.22;5086643;28;8848;-78
2022/06/26 12:39:22;;;;;;;;;8.80;8.00;;;;;28.52;44.59;99363.94;5111179;28;8853;-78
2022/06/26 12:42:12;;;;;;;;;11.80;9.00;;;;;28.38;44.55;99362.28;5108942;28;8882;-77
2022/06/26 12:44:41;;;;;;;;;9.20;7.00;;;;;28.12;45.64;99363.44;5104110;28;8865;-80
2022/06/26 12:47:10;;;;;;;;;10.00;10.00;;;;;28.05;46.24;99362.22;5089226;28;8868;-77
2022/06/26 12:49:39;;;;;;;;;9.20;9.20;;;;;27.99;46.68;99363.53;5095210;28;8891;-79
2022/06/26 12:52:08;;;;;;;;;9.80;9.80;;;;;28.15;46.28;99356.03;5088329;28;8849;-80
2022/06/26 12:54:37;;;;;;;;;6.60;6.60;;;;;28.17;46.54;99354.09;5094730;28;8861;-77
2022/06/26 12:57:06;;;;;;;;;11.60;11.60;;;;;28.09;46.80;99350.28;5105807;28;8884;-79
2022/06/26 12:59:36;;;;;;;;;11.60;10.80;;;;;27.98;46.54;99354.63;5039230;28;8829;-80
2022/06/26 13:02:05;;;;;;;;;9.40;9.40;;;;;27.98;46.75;99357.31;5103485;28;8867;-76
2022/06/26 13:04:34;;;;;;;;;12.40;10.00;;;;;28.02;46.92;99354.41;5121538;27;8859;-77
2022/06/26 13:07:03;;;;;;;;;10.20;9.00;;;;;28.28;45.46;99345.22;5093723;28;8951;-80
2022/06/26 13:09:31;;;;;;;;;11.00;11.00;;;;;28.26;46.37;99351.66;5107322;28;8857;-77
2022/06/26 13:12:00;;;;;;;;;10.00;9.00;;;;;28.29;45.68;99354.97;5097622;28;8848;-80
2022/06/26 13:14:29;;;;;;;;;9.80;9.80;;;;;28.53;45.60;99352.22;5087460;28;8962;-77
2022/06/26 13:16:59;;;;;;;;;10.60;10.60;;;;;29.43;43.58;99345.97;5097122;28;8996;-78
2022/06/26 13:19:28;;;;;;;;;9.00;8.60;;;;;30.63;41.55;99348.50;5092304;28;8863;-78
2022/06/26 13:21:57;;;;;;;;;9.00;8.80;;;;;31.83;38.63;99340.47;5076261;28;8970;-79
2022/06/26 13:24:26;;;;;;;;;7.20;7.20;;;;;33.09;34.63;99335.78;5088530;28;8862;-79
2022/06/26 13:26:55;;;;;;;;;7.60;7.60;;;;;33.48;32.66;99335.53;5111938;28;8849;-77
2022/06/26 13:29:24;;;;;;;;;6.40;6.40;;;;;34.53;32.14;99340.19;5057827;28;8845;-78
2022/06/26 13:31:54;;;;;;;;;6.80;6.80;;;;;34.46;31.64;99338.28;5111566;28;8860;-77
2022/06/26 13:34:24;;;;;;;;;8.20;8.00;;;;;34.80;31.46;99330.19;5098099;28;8881;-79
2022/06/26 13:36:54;;;;;;;;;9.60;9.40;;;;;34.50;31.55;99337.81;5097499;28;8865;-78
2022/06/26 13:39:23;;;;;;;;;8.20;8.20;;;;;33.43;33.09;99329.78;5104141;28;8845;-77
2022/06/26 13:41:52;;;;;;;;;6.20;6.20;;;;;33.91;32.54;99337.50;5111715;28;8841;-77
2022/06/26 13:44:22;;;;;;;;;7.60;7.60;;;;;34.39;32.54;99329.97;5095289;28;8983;-82
2022/06/26 13:46:52;;;;;;;;;7.80;7.80;;;;;35.13;30.82;99328.47;5111737;28;8937;-80
2022/06/26 13:49:20;;;;;;;;;8.20;8.20;;;;;34.81;32.14;99318.34;5110144;27;8864;-79
2022/06/26 13:51:51;;;;;;;;;12.00;12.00;;;;;34.94;32.23;99321.47;5109105;28;8847;-80
2022/06/26 13:54:20;;;;;;;;;6.60;6.20;;;;;34.81;31.21;99320.22;5111363;28;8923;-78
2022/06/26 13:56:49;;;;;;;;;9.60;9.60;;;;;35.22;30.60;99318.53;5108654;28;8892;-80
2022/06/26 13:59:18;;;;;;;;;9.00;9.00;;;;;34.81;31.99;99318.34;5091940;28;8948;-69
2022/06/26 14:01:47;;;;;;;;;8.60;7.80;;;;;34.65;32.48;99312.81;5106535;28;9634;-78
2022/06/26 14:04:15;;;;;;;;;10.20;9.80;;;;;34.64;31.91;99311.13;5074722;28;8989;-76
2022/06/26 14:06:45;;;;;;;;;8.40;8.40;;;;;34.41;30.82;99311.69;5103623;27;8863;-78
2022/06/26 14:09:15;;;;;;;;;7.60;5.80;;;;;34.35;31.03;99307.75;5107308;28;8913;-78
2022/06/26 14:11:43;;;;;;;;;8.00;8.00;;;;;34.38;31.68;99302.00;5085654;28;8890;-80
2022/06/26 14:14:12;;;;;;;;;5.60;5.60;;;;;34.17;31.80;99304.25;5092675;28;8966;-78
2022/06/26 14:16:41;;;;;;;;;7.20;7.00;;;;;33.77;32.58;99303.75;5090046;28;9633;-79
2022/06/26 14:19:10;;;;;;;;;7.20;7.20;;;;;33.17;33.19;99303.47;5077599;28;8962;-79
2022/06/26 14:21:39;;;;;;;;;8.80;8.80;;;;;33.07;33.71;99303.50;5108493;28;8904;-78
2022/06/26 14:26:55;;;;;;;;;6.80;6.80;;;;;32.37;33.96;99303.06;5080337;28;8848;-78
2022/06/26 14:29:24;;;;;;;;;8.40;7.80;;;;;31.88;34.95;99308.53;5091887;28;8857;-80
2022/06/26 14:31:53;;;;;;;;;6.00;6.00;;;;;31.85;35.30;99315.06;5088300;28;9797;-79
2022/06/26 14:34:35;;;;;;;;;7.00;7.00;;;;;31.06;37.70;99309.72;5076239;28;8838;-78
2022/06/26 14:37:04;;;;;;;;;8.60;8.40;;;;;30.91;37.36;99309.25;5103402;27;8933;-80
2022/06/26 14:39:33;;;;;;;;;13.80;13.80;;;;;30.99;37.69;99300.47;5058537;28;8889;-79
2022/06/26 14:42:03;;;;;;;;;8.80;8.80;;;;;31.33;36.50;99298.28;5121919;27;8843;-79
2022/06/26 14:44:32;;;;;;;;;8.60;8.60;;;;;31.34;36.50;99305.34;5090582;28;9354;-79
2022/06/26 14:47:01;;;;;;;;;10.00;10.00;;;;;31.59;36.32;99303.13;5090873;28;8871;-78
2022/06/26 14:49:30;;;;;;;;;7.00;7.00;;;;;31.38;35.78;99305.91;5079512;28;8853;-78
2022/06/26 14:51:59;;;;;;;;;7.40;7.40;;;;;30.80;36.74;99298.53;5103305;28;8876;-78
2022/06/26 14:54:28;;;;;;;;;8.60;7.60;;;;;30.70;37.49;99298.50;5053680;28;8848;-78
2022/06/26 14:56:59;;;;;;;;;7.00;7.00;;;;;30.72;36.75;99296.53;5050148;28;9858;-78
2022/06/26 14:59:29;;;;;;;;;6.20;6.20;;;;;30.48;37.81;99289.63;5080776;28;8850;-77
2022/06/26 15:01:58;;;;;;;;;6.80;6.80;;;;;30.20;38.01;99295.66;5041599;28;8850;-78
2022/06/26 15:04:27;;;;;;;;;7.80;7.80;;;;;30.28;37.76;99285.97;5052102;28;8858;-79
2022/06/26 15:06:56;;;;;;;;;5.40;5.40;;;;;30.47;37.48;99293.31;5032620;28;8871;-79
2022/06/26 15:09:25;;;;;;;;;7.40;7.40;;;;;30.70;38.10;99293.97;5048794;28;8958;-79
2022/06/26 15:11:53;;;;;;;;;7.40;7.40;;;;;30.98;37.74;99293.38;5063402;28;8857;-77
2022/06/26 15:14:22;;;;;;;;;9.00;8.80;;;;;31.25;37.66;99298.13;5050684;28;9029;-76
2022/06/26 15:16:53;;;;;;;;;5.60;5.60;;;;;31.37;36.58;99294.28;5052134;28;8845;-78
2022/06/26 15:19:21;;;;;;;;;6.40;6.40;;;;;31.58;36.10;99296.88;5052575;28;8880;-79
2022/06/26 15:21:50;;;;;;;;;7.20;7.20;;;;;31.69;36.20;99286.97;5035870;28;8934;-77
2022/06/26 15:24:20;;;;;;;;;6.40;5.00;;;;;31.80;35.40;99289.53;5065962;28;9576;-79
2022/06/26 15:26:49;;;;;;;;;5.00;5.00;;;;;31.91;35.34;99297.47;5106166;28;8892;-78
2022/06/26 15:29:37;;;;;;;;;3.80;3.80;;;;;31.87;34.75;99298.72;5098062;28;8886;-78
2022/06/26 15:32:12;;;;;;;;;3.80;3.80;;;;;31.54;34.46;99287.38;5104233;27;8851;-79
2022/06/26 15:34:43;;;;;;;;;3.00;3.00;;;;;31.51;34.43;99300.28;5107411;28;10003;-77
2022/06/26 15:37:16;;;;;;;;;5.40;4.40;;;;;30.72;36.04;99291.16;5106211;28;8999;-81
2022/06/26 15:39:46;;;;;;;;;6.00;6.00;;;;;30.75;36.11;99292.72;5107468;28;8849;-79
2022/06/26 15:42:20;;;;;;;;;2.60;2.40;;;;;30.96;36.05;99295.34;5104499;28;8856;-78
2022/06/26 15:44:50;;;;;;;;;4.80;4.80;;;;;31.07;36.17;99292.53;5095028;28;9001;-79
2022/06/26 15:47:20;;;;;;;;;1.80;1.80;;;;;31.18;35.61;99295.13;5099476;28;8873;-81
2022/06/26 15:49:49;;;;;;;;;3.00;3.00;;;;;31.08;35.21;99287.03;5105488;28;8929;-79
2022/06/26 15:52:18;;;;;;;;;4.40;4.20;;;;;31.06;35.74;99297.09;5087364;28;8860;-79
2022/06/26 15:54:46;;;;;;;;;2.80;2.80;;;;;31.10;35.04;99292.28;5056108;28;8926;-79
2022/06/26 15:57:15;;;;;;;;;6.20;5.20;;;;;31.06;35.41;99302.47;5108132;28;8953;-78
2022/06/26 15:59:44;;;;;;;;;3.60;3.60;;;;;31.12;35.66;99298.38;5107255;27;8922;-76
2022/06/26 16:02:13;;;;;;;;;3.80;2.80;;;;;31.16;35.15;99297.09;5096275;27;8949;-81
2022/06/26 16:04:44;;;;;;;;;3.80;3.80;;;;;30.93;35.30;99292.91;5107258;27;8910;-78
2022/06/26 16:07:13;;;;;;;;;4.80;3.80;;;;;30.61;36.18;99296.63;5102259;28;9638;-77
2022/06/26 16:09:42;;;;;;;;;2.80;2.80;;;;;30.22;37.30;99291.00;5105939;28;8880;-78
2022/06/26 16:12:12;;;;;;;;;4.00;4.00;;;;;30.04;37.84;99294.31;5099307;28;8906;-76
2022/06/26 16:14:41;;;;;;;;;4.00;4.00;;;;;30.12;37.09;99294.50;5058929;28;8875;-77
2022/06/26 16:17:10;;;;;;;;;4.20;4.20;;;;;29.75;38.36;99296.78;5109455;28;8865;-79
2022/06/26 16:19:40;;;;;;;;;3.80;3.80;;;;;30.10;37.95;99290.25;5105599;28;8881;-79
2022/06/26 16:27:43;;;;;;;;;2.80;2.80;;;;;30.79;36.75;99302.22;5104836;28;8956;-76
2022/06/26 16:30:13;;;;;;;;;2.40;2.40;;;;;31.17;35.89;99301.50;5055563;28;9614;-79
2022/06/26 16:32:43;;;;;;;;;0.80;0.80;;;;;31.89;34.95;99302.16;5096720;28;8864;-80
2022/06/26 16:35:13;;;;;;;;;2.00;2.00;;;;;32.66;33.27;99296.75;5088708;28;8892;-79
2022/06/26 16:37:43;;;;;;;;;4.60;4.60;;;;;33.17;32.21;99295.34;5056214;28;8868;-79
2022/06/26 16:40:12;;;;;;;;;6.40;5.40;;;;;33.45;31.72;99298.03;5051996;28;8896;-79
2022/06/26 16:42:41;;;;;;;;;4.40;4.40;;;;;34.20;30.56;99301.25;5103679;28;8817;-78
2022/06/26 16:45:10;;;;;;;;;2.80;2.80;;;;;34.68;30.11;99304.41;5120427;28;8929;-77
2022/06/26 16:47:39;;;;;;;;;2.00;2.00;;;;;35.00;28.99;99313.69;5067677;28;8857;-78
2022/06/26 16:50:10;;;;;;;;;3.40;3.40;;;;;34.80;28.78;99302.25;5107158;28;9019;-76
2022/06/26 16:52:39;;;;;;;;;3.00;3.00;;;;;35.11;28.50;99310.69;5106714;28;8857;-78
2022/06/26 16:55:11;;;;;;;;;3.00;3.00;;;;;35.42;28.48;99310.94;5095538;28;8833;-76
2022/06/26 16:57:39;;;;;;;;;2.80;2.80;;;;;36.02;28.09;99315.25;5093787;27;9620;-79
2022/06/26 17:00:10;;;;;;;;;3.00;3.00;;;;;36.61;27.32;99311.44;5092069;28;8889;-79
2022/06/26 17:02:39;;;;;;;;;3.20;2.00;;;;;36.41;26.22;99311.84;5091933;28;8887;-79
2022/06/26 17:05:09;;;;;;;;;3.00;3.00;;;;;35.69;27.50;99315.25;5091378;28;8940;-79
2022/06/26 17:07:38;;;;;;;;;3.20;3.00;;;;;35.11;27.77;99322.38;5076695;28;8865;-77
2022/06/26 17:10:08;;;;;;;;;2.40;2.40;;;;;35.36;28.12;99327.06;5110387;28;8860;-80
2022/06/26 17:12:40;;;;;;;;;0.40;0.00;;;;;36.11;27.20;99319.66;5090319;28;8855;-79
2022/06/26 17:15:10;;;;;;;;;3.40;3.40;;;;;35.99;26.41;99318.28;5067711;28;9865;-79
2022/06/26 17:17:38;;;;;;;;;3.40;3.40;;;;;35.64;27.51;99320.31;5071924;28;8893;-78
2022/06/26 17:20:08;;;;;;;;;2.00;2.00;;;;;34.98;28.43;99324.69;5051603;28;8934;-80
2022/06/26 17:22:37;;;;;;;;;3.40;3.40;;;;;35.71;27.39;99331.34;5073735;28;9021;-82
2022/06/26 17:25:07;;;;;;;;;3.20;3.20;;;;;35.20;27.92;99327.84;5088343;28;8859;-78
2022/06/26 17:27:35;;;;;;;;;3.40;3.20;;;;;34.40;29.26;99328.09;5056422;28;8844;-79
2022/06/26 17:30:08;;;;;;;;;3.20;3.00;;;;;34.46;28.91;99320.19;5071867;28;9702;-78
2022/06/26 17:32:41;;;;;;;;;2.00;2.00;;;;;35.00;28.73;99321.81;5008844;28;8834;-80
2022/06/26 17:35:11;;;;;;;;;2.20;2.20;;;;;35.58;28.14;99314.69;5088151;28;8832;-80
2022/06/26 17:37:41;;;;;;;;;2.40;2.40;;;;;36.01;27.43;99321.72;5071646;28;8832;-78
2022/06/26 17:40:11;;;;;;;;;2.80;2.80;;;;;36.46;27.04;99323.00;5071100;28;8859;-80
2022/06/26 17:42:40;;;;;;;;;1.60;1.60;;;;;36.72;26.39;99321.97;5054607;28;8828;-78
2022/06/26 17:45:11;;;;;;;;;2.80;2.80;;;;;36.93;26.00;99313.22;5024362;28;8875;-78
2022/06/26 17:47:46;;;;;;;;;2.00;2.00;;;;;37.06;26.00;99318.09;5091690;28;8812;-78
2022/06/26 17:50:18;;;;;;;;;2.00;2.00;;;;;37.02;25.95;99316.75;5071559;28;8861;-78
2022/06/26 17:52:48;;;;;;;;;3.40;2.40;;;;;37.07;25.84;99320.63;5089673;28;9736;-79
2022/06/26 17:55:19;;;;;;;;;3.00;3.00;;;;;37.17;26.07;99322.31;5030677;28;8888;-77
2022/06/26 17:57:48;;;;;;;;;0.60;0.60;;;;;37.21;25.87;99312.78;5048161;28;8859;-78
2022/06/26 18:00:23;;;;;;;;;3.00;2.00;;;;;37.10;25.78;99313.13;5055731;28;8886;-76
2022/06/26 18:02:53;;;;;;;;;3.00;3.00;;;;;36.93;25.90;99315.94;5048539;28;8842;-75
2022/06/26 18:05:23;;;;;;;;;2.80;2.80;;;;;36.58;26.55;99318.09;5031932;28;8986;-76
2022/06/26 18:07:53;;;;;;;;;4.00;4.00;;;;;36.44;26.82;99316.06;5048572;28;8905;-74
2022/06/26 18:10:22;;;;;;;;;4.00;4.00;;;;;36.17;27.03;99320.88;5031540;28;8874;-77
2022/06/26 18:12:53;;;;;;;;;2.00;2.00;;;;;35.85;27.61;99317.13;5048343;28;8842;-75
2022/06/26 18:15:24;;;;;;;;;5.00;5.00;;;;;35.45;28.00;99326.91;5033436;28;8852;-77
2022/06/26 18:17:54;;;;;;;;;2.80;2.80;;;;;35.07;28.50;99328.28;5001847;28;8871;-77
2022/06/26 18:20:25;;;;;;;;;3.20;3.20;;;;;34.81;29.18;99322.94;5067570;28;8870;-76
2022/06/26 18:22:56;;;;;;;;;5.60;4.60;;;;;34.54;29.62;99324.81;5068159;28;8988;-77
2022/06/26 18:25:26;;;;;;;;;3.60;3.60;;;;;34.24;29.95;99320.72;5053548;28;8835;-75
2022/06/26 18:27:57;;;;;;;;;5.00;5.00;;;;;33.95;30.16;99324.50;5111012;28;9711;-76
2022/06/26 18:30:29;;;;;;;;;5.60;5.60;;;;;33.73;30.90;99325.88;5110996;28;8884;-75
2022/06/26 18:32:59;;;;;;;;;5.00;5.00;;;;;33.49;31.18;99329.16;5105745;27;8847;-76
2022/06/26 18:35:28;;;;;;;;;6.40;5.40;;;;;33.28;31.78;99327.56;5066787;28;8880;-76
2022/06/26 18:37:56;;;;;;;;;6.00;6.00;;;;;33.10;31.80;99330.22;5050919;28;8965;-76
2022/06/26 18:40:28;;;;;;;;;6.40;5.40;;;;;32.87;32.51;99337.84;5067452;28;8840;-77
2022/06/26 18:42:56;;;;;;;;;5.40;5.40;;;;;32.65;32.86;99341.81;5050876;28;8860;-78
2022/06/26 18:45:24;;;;;;;;;5.00;4.40;;;;;32.47;32.96;99338.13;5053014;28;8876;-78
2022/06/26 18:47:55;;;;;;;;;4.80;4.80;;;;;32.30;33.44;99345.13;5047957;28;8857;-76
2022/06/26 18:50:23;;;;;;;;;7.00;7.00;;;;;32.12;33.62;99348.56;5037404;28;10094;-75
2022/06/26 18:52:54;;;;;;;;;7.00;7.00;;;;;31.96;34.04;99343.72;5050847;28;8864;-77
2022/06/26 18:55:23;;;;;;;;;10.80;10.80;;;;;31.83;34.29;99348.53;5020783;28;9591;-77
2022/06/26 18:57:52;;;;;;;;;10.40;10.40;;;;;31.67;34.62;99351.81;5030670;28;8854;-77
2022/06/26 19:00:21;;;;;;;;;41.75;35.50;;;;;31.55;35.17;99353.81;5006968;28;8882;-76
2022/06/26 19:02:50;;;;;;;;;26.50;26.00;;;;;31.43;35.49;99357.56;4975204;28;8850;-77
2022/06/26 19:05:20;;;;;;;;;12.00;11.60;;;;;31.28;35.77;99360.66;5005740;28;8878;-77
2022/06/26 19:08:10;;;;;;;;;10.60;10.60;;;;;31.14;36.12;99365.59;5050018;28;9032;-77
2022/06/26 19:10:38;;;;;;;;;10.00;9.80;;;;;30.99;36.88;99371.34;5036480;28;8980;-76
2022/06/26 19:15:56;;;;;;;;;10.60;10.60;;;;;30.78;36.74;99360.59;5006938;28;8862;-77
2022/06/26 19:18:25;;;;;;;;;12.00;11.60;;;;;30.68;36.96;99370.44;4966528;28;8844;-76
2022/06/26 19:20:55;;;;;;;;;21.40;21.40;;;;;30.62;37.34;99368.31;5008990;28;8856;-77
2022/06/26 19:23:27;;;;;;;;;64.33;52.00;;;;;30.52;37.37;99368.25;4977719;28;8844;-76
2022/06/26 19:25:55;;;;;;;;;14.40;12.20;;;;;30.44;38.03;99379.69;5026465;28;9188;-76
2022/06/26 19:28:24;;;;;;;;;14.80;13.20;;;;;30.29;38.58;99387.19;5026646;28;9629;-77
2022/06/26 19:30:53;;;;;;;;;10.60;10.60;;;;;30.07;39.86;99382.78;4977117;28;8949;-78
2022/06/26 19:33:22;;;;;;;;;9.20;9.20;;;;;29.85;40.23;99381.06;5008590;28;8911;-71
2022/06/26 19:35:51;;;;;;;;;7.80;7.80;;;;;29.65;41.14;99381.81;5024934;28;9086;-71
2022/06/26 19:38:21;;;;;;;;;7.60;6.60;;;;;29.48;41.97;99381.38;5024043;28;8842;-70
2022/06/26 19:40:56;;;;;;;;;10.80;10.80;;;;;29.39;42.68;99379.44;5025660;28;8951;-70
2022/06/26 19:43:25;;;;;;;;;7.80;7.80;;;;;29.31;43.03;99379.22;5063373;28;8887;-70
2022/06/26 19:45:54;;;;;;;;;5.60;5.20;;;;;29.21;43.75;99386.31;5045453;28;9560;-68
2022/06/26 19:48:23;;;;;;;;;5.40;5.40;;;;;29.06;44.08;99378.47;5066346;28;8867;-73
2022/06/26 19:50:51;;;;;;;;;10.40;9.80;;;;;28.91;45.12;99385.94;5066908;28;8848;-71
2022/06/26 19:53:21;;;;;;;;;8.20;8.20;;;;;28.72;45.89;99381.16;5036404;28;8871;-74
2022/06/26 19:55:50;;;;;;;;;9.20;9.20;;;;;28.51;46.69;99383.66;5089676;28;8845;-74
2022/06/26 19:58:24;;;;;;;;;8.20;8.20;;;;;28.30;47.03;99383.50;5086667;28;8853;-73
2022/06/26 20:00:52;;;;;;;;;7.80;7.80;;;;;28.18;47.33;99393.31;5106842;28;8879;-76
2022/06/26 20:06:08;;;;;;;;;9.60;8.00;;;;;27.92;47.94;99391.75;5106141;28;8871;-76
2022/06/26 20:08:38;;;;;;;;;10.60;10.60;;;;;27.85;48.27;99390.50;5069675;28;8865;-76
2022/06/26 20:11:27;;;;;;;;;17.75;17.75;;;;;27.72;48.57;99396.75;5102383;28;8951;-76
2022/06/26 20:13:56;;;;;;;;;9.40;7.00;;;;;27.67;48.40;99388.19;5087871;27;8861;-77
2022/06/26 20:16:24;;;;;;;;;8.00;8.00;;;;;27.64;48.71;99395.59;5105910;28;8871;-76
2022/06/26 20:18:53;;;;;;;;;9.40;9.40;;;;;27.60;48.79;99389.66;5072084;28;8872;-72
2022/06/26 20:21:22;;;;;;;;;8.40;8.40;;;;;27.57;48.82;99396.06;5076419;28;8852;-73
2022/06/26 20:23:51;;;;;;;;;10.60;9.00;;;;;27.50;49.21;99397.47;5106119;28;8872;-72
2022/06/26 20:26:20;;;;;;;;;10.00;10.00;;;;;27.49;48.93;99402.97;5107754;28;8934;-72
2022/06/26 20:28:49;;;;;;;;;10.00;10.00;;;;;27.40;49.31;99399.13;5107544;28;8849;-74
2022/06/26 20:31:17;;;;;;;;;11.00;8.80;;;;;27.42;49.00;99395.38;5104063;28;8983;-76
2022/06/26 20:33:46;;;;;;;;;10.60;8.60;;;;;27.40;49.01;99401.81;5088952;28;8852;-72
2022/06/26 20:36:15;;;;;;;;;7.60;7.40;;;;;27.37;49.09;99397.53;5088784;28;8856;-75
2022/06/26 20:38:45;;;;;;;;;8.40;7.20;;;;;27.34;49.10;99404.94;5107439;28;8849;-73
2022/06/26 20:41:16;;;;;;;;;8.00;8.00;;;;;27.30;49.27;99392.75;5078616;28;9014;-73
2022/06/26 20:43:44;;;;;;;;;9.00;9.00;;;;;27.29;49.16;99401.72;5105931;28;8873;-76
2022/06/26 20:46:13;;;;;;;;;8.80;8.80;;;;;27.25;49.28;99400.22;5103647;28;8851;-75
2022/06/26 20:48:43;;;;;;;;;11.40;10.40;;;;;27.21;49.08;99395.06;5087405;28;8865;-73
2022/06/26 20:51:11;;;;;;;;;8.00;7.40;;;;;27.22;49.20;99399.47;5103634;28;8886;-73
2022/06/26 20:53:40;;;;;;;;;9.00;9.00;;;;;27.06;49.65;99393.50;5054918;28;9598;-71